Time;durP1;ratioP1;P1;durP2;ratioP2;P2;SDS_P1;SDS_P2;PMS_P1;PMS_P2;Temp;Humidity;BMP_temperature;BMP_pressure;BME280_temperature;BME280_humidity;BME280_pressure;Samples;Min_cycle;Max_cycle;Signal;HPM_P1;HPM_P2
2023/12/13 00:00:01;;;;;;;1.08;0.98;;;;;;;10.20;100.00;98008.78;336439;29;4534;-75
2023/12/13 00:00:15;;;;;;;1.20;1.10;;;;;;;10.23;100.00;98003.41;332354;28;17914;-76
2023/12/13 00:00:27;;;;;;;0.75;0.75;;;;;;;10.23;100.00;98003.41;331811;29;13511;-76
2023/12/13 00:00:39;;;;;;;0.50;0.50;;;;;;;10.19;100.00;98009.72;335334;28;5530;-76
2023/12/13 00:00:51;;;;;;;0.35;0.35;;;;;;;10.14;100.00;98015.19;336700;28;5479;-76
2023/12/13 00:01:04;;;;;;;0.22;0.22;;;;;;;10.19;100.00;98007.13;336010;28;18361;-75
2023/12/13 00:01:16;;;;;;;1.08;0.40;;;;;;;10.14;100.00;98011.72;338795;28;4602;-76
2023/12/13 00:01:28;;;;;;;1.80;0.68;;;;;;;10.08;100.00;98014.66;333302;29;12605;-75
2023/12/13 00:01:40;;;;;;;2.10;0.90;;;;;;;10.10;100.00;98010.22;335051;28;4644;-75
2023/12/13 00:01:52;;;;;;;1.70;0.90;;;;;;;10.05;100.00;98020.06;331534;29;4716;-75
2023/12/13 00:02:07;;;;;;;1.30;0.85;;;;;;;10.08;100.00;98019.88;335871;28;4704;-75
2023/12/13 00:02:19;;;;;;;1.08;0.65;;;;;;;10.09;100.00;98021.56;332851;28;18253;-76
2023/12/13 00:02:31;;;;;;;0.85;0.40;;;;;;;10.12;100.00;98008.38;333305;29;4567;-76
2023/12/13 00:02:43;;;;;;;0.70;0.25;;;;;;;10.16;100.00;98012.47;331588;29;4861;-75
2023/12/13 00:02:55;;;;;;;1.30;0.20;;;;;;;10.15;100.00;98010.81;334056;29;5232;-76
2023/12/13 00:03:07;;;;;;;1.20;0.10;;;;;;;10.14;100.00;98009.13;331968;29;12704;-76
2023/12/13 00:03:19;;;;;;;0.20;0.20;;;;;;;10.12;100.00;98017.03;334955;29;5208;-76
2023/12/13 00:03:31;;;;;;;0.32;0.32;;;;;;;10.16;100.00;98009.88;334445;28;4589;-76
2023/12/13 00:03:43;;;;;;;0.45;0.45;;;;;;;10.19;100.00;98012.31;332720;28;11737;-76
2023/12/13 00:03:55;;;;;;;0.93;0.85;;;;;;;10.24;100.00;98012.03;334480;29;5377;-76
2023/12/13 00:04:07;;;;;;;1.35;1.10;;;;;;;10.24;100.00;98009.44;332151;29;10404;-75
2023/12/13 00:04:19;;;;;;;1.13;0.85;;;;;;;10.27;100.00;98010.09;334705;29;4748;-76
2023/12/13 00:04:31;;;;;;;1.05;0.57;;;;;;;10.25;100.00;98004.16;333981;29;7058;-75
2023/12/13 00:04:43;;;;;;;0.90;0.50;;;;;;;10.24;100.00;98010.31;325310;29;13812;-75
2023/12/13 00:04:56;;;;;;;1.00;0.60;;;;;;;10.26;100.00;98011.06;332789;29;6257;-75
2023/12/13 00:05:08;;;;;;;0.70;0.43;;;;;;;10.27;100.00;98009.28;332801;29;10798;-76
2023/12/13 00:05:20;;;;;;;1.50;0.40;;;;;;;10.29;100.00;98003.06;325849;29;17967;-76
2023/12/13 00:05:32;;;;;;;1.92;0.50;;;;;;;10.31;100.00;98008.22;331441;29;4660;-76
2023/12/13 00:05:44;;;;;;;1.38;0.50;;;;;;;10.35;100.00;98002.75;329034;29;5236;-76
2023/12/13 00:05:56;;;;;;;0.40;0.30;;;;;;;10.34;100.00;98003.69;332284;29;4560;-75
2023/12/13 00:06:08;;;;;;;0.47;0.32;;;;;;;10.34;100.00;98001.09;326777;29;5321;-76
2023/12/13 00:06:20;;;;;;;0.70;0.30;;;;;;;10.38;100.00;98004.31;333202;29;4533;-76
2023/12/13 00:06:32;;;;;;;0.73;0.40;;;;;;;10.35;100.00;98007.94;332523;29;4549;-76
2023/12/13 00:06:44;;;;;;;0.90;0.50;;;;;;;10.36;100.00;98009.63;330616;29;18112;-76
2023/12/13 00:06:56;;;;;;;1.00;0.60;;;;;;;10.37;100.00;98011.28;332975;29;6311;-76
2023/12/13 00:07:08;;;;;;;0.60;0.60;;;;;;;10.35;100.00;98007.09;333129;29;14392;-76
2023/12/13 00:07:20;;;;;;;0.60;0.60;;;;;;;10.33;100.00;98004.59;335356;28;5561;-76
2023/12/13 00:07:32;;;;;;;0.43;0.43;;;;;;;10.34;100.00;98006.28;335799;29;5383;-75
2023/12/13 00:07:45;;;;;;;0.32;0.32;;;;;;;10.38;100.00;98014.69;332754;29;18796;-76
2023/12/13 00:07:57;;;;;;;1.30;0.30;;;;;;;10.36;100.00;98004.44;336082;28;4599;-76
2023/12/13 00:08:09;;;;;;;1.20;0.25;;;;;;;10.35;100.00;98002.75;333139;28;16143;-75
2023/12/13 00:08:21;;;;;;;0.30;0.20;;;;;;;10.37;100.00;98010.44;335388;28;4566;-75
2023/12/13 00:08:33;;;;;;;0.30;0.25;;;;;;;10.34;100.00;98006.28;335130;29;5127;-76
2023/12/13 00:08:45;;;;;;;0.40;0.30;;;;;;;10.31;100.00;98009.03;333156;29;18340;-76
2023/12/13 00:08:57;;;;;;;0.30;0.30;;;;;;;10.30;100.00;98003.94;331150;28;5157;-76
2023/12/13 00:09:09;;;;;;;0.30;0.30;;;;;;;10.29;100.00;98007.44;331669;29;5264;-76
2023/12/13 00:09:21;;;;;;;0.43;0.43;;;;;;;10.26;100.00;98013.66;336087;28;4610;-76
2023/12/13 00:09:33;;;;;;;0.68;0.68;;;;;;;10.31;100.00;98006.44;336023;29;4600;-76
2023/12/13 00:09:45;;;;;;;0.80;0.80;;;;;;;10.34;100.00;98008.88;332564;29;18112;-76
2023/12/13 00:09:58;;;;;;;1.15;0.73;;;;;;;10.35;100.00;98007.09;335846;28;6141;-76
2023/12/13 00:10:10;;;;;;;2.10;0.60;;;;;;;10.33;100.00;98002.00;332592;29;16589;-76
2023/12/13 00:10:22;;;;;;;1.65;0.70;;;;;;;10.31;100.00;98006.44;335110;29;4659;-76
2023/12/13 00:10:34;;;;;;;2.00;0.68;;;;;;;10.32;100.00;98008.13;330229;29;5331;-76
2023/12/13 00:10:46;;;;;;;1.08;0.38;;;;;;;10.31;100.00;98001.25;333031;29;18340;-76
2023/12/13 00:10:59;;;;;;;0.88;0.43;;;;;;;10.30;100.00;98009.13;336321;29;5325;-76
2023/12/13 00:11:11;;;;;;;1.15;0.60;;;;;;;10.26;100.00;98003.25;333210;28;12682;-76
2023/12/13 00:11:23;;;;;;;1.15;0.80;;;;;;;10.26;100.00;98008.44;336950;28;5295;-76
2023/12/13 00:11:35;;;;;;;1.00;0.80;;;;;;;10.27;100.00;98004.09;332649;28;16435;-76
2023/12/13 00:11:47;;;;;;;1.00;0.90;;;;;;;10.27;100.00;98007.50;337167;28;4730;-76
2023/12/13 00:11:59;;;;;;;0.90;0.77;;;;;;;10.30;100.00;98004.78;331578;28;4559;-76
2023/12/13 00:12:11;;;;;;;0.50;0.43;;;;;;;10.31;100.00;98008.22;334202;28;18456;-76
2023/12/13 00:12:23;;;;;;;1.30;0.20;;;;;;;10.27;100.00;98010.09;337352;28;5408;-75
2023/12/13 00:12:35;;;;;;;1.30;0.22;;;;;;;10.30;100.00;98004.78;333278;28;18439;-76
2023/12/13 00:12:47;;;;;;;0.70;0.20;;;;;;;10.32;100.00;98013.31;335999;28;4721;-76
2023/12/13 00:12:59;;;;;;;1.63;1.33;;;;;;;10.30;100.00;98009.97;335776;28;4722;-76
2023/12/13 00:13:11;;;;;;;2.50;1.50;;;;;;;10.31;100.00;98011.63;332127;28;18056;-76
2023/12/13 00:13:26;;;;;;;2.08;1.00;;;;;;;10.31;100.00;98003.84;335932;28;4729;-76
2023/12/13 00:13:38;;;;;;;0.82;0.25;;;;;;;10.34;100.00;98006.28;334811;28;18237;-76
2023/12/13 00:13:50;;;;;;;0.35;0.20;;;;;;;10.32;100.00;98002.06;336915;28;4705;-76
2023/12/13 00:14:02;;;;;;;0.95;0.30;;;;;;;10.31;100.00;98006.44;333456;29;18996;-75
2023/12/13 00:14:14;;;;;;;1.20;0.50;;;;;;;10.33;100.00;98004.59;336194;29;4751;-76
2023/12/13 00:14:26;;;;;;;2.22;1.77;;;;;;;10.36;100.00;98003.56;333121;28;17751;-75
2023/12/13 00:14:38;;;;;;;3.53;2.78;;;;;;;10.40;100.00;98005.06;335381;28;4884;-76
2023/12/13 00:14:51;;;;;;;3.47;2.55;;;;;;;10.41;100.00;98005.91;335669;28;5777;-76
2023/12/13 00:15:03;;;;;;;2.17;1.20;;;;;;;10.41;100.00;98005.91;333253;29;19005;-76
2023/12/13 00:15:16;;;;;;;1.60;1.10;;;;;;;10.45;100.00;98002.22;336097;29;4687;-77
2023/12/13 00:15:27;;;;;;;1.05;0.95;;;;;;;10.42;100.00;97994.59;332499;28;19634;-75
2023/12/13 00:15:40;;;;;;;0.70;0.70;;;;;;;10.49;100.00;98001.13;335055;29;4678;-76
2023/12/13 00:15:52;;;;;;;0.50;0.50;;;;;;;10.49;100.00;98003.72;335665;29;5936;-76
2023/12/13 00:16:04;;;;;;;0.40;0.38;;;;;;;10.54;100.00;98001.66;333840;28;18309;-76
2023/12/13 00:16:18;;;;;;;0.73;0.28;;;;;;;10.54;100.00;98007.72;335329;29;5638;-76
2023/12/13 00:16:30;;;;;;;0.70;0.30;;;;;;;10.52;100.00;98003.50;327809;29;18316;-76
2023/12/13 00:16:42;;;;;;;1.70;0.30;;;;;;;10.52;100.00;98003.50;332255;29;4758;-76
2023/12/13 00:16:54;;;;;;;1.60;0.30;;;;;;;10.51;100.00;98009.66;336998;28;5358;-76
2023/12/13 00:17:10;;;;;;;0.32;0.30;;;;;;;10.48;100.00;98007.22;334561;28;9051;-76
2023/12/13 00:17:21;;;;;;;0.35;0.30;;;;;;;10.50;100.00;98002.75;333869;28;17451;-76
2023/12/13 00:17:33;;;;;;;0.82;0.80;;;;;;;10.47;100.00;98003.78;334404;28;18079;-76
2023/12/13 00:17:46;;;;;;;1.10;1.00;;;;;;;10.45;100.00;98005.66;336401;28;6534;-76
2023/12/13 00:17:58;;;;;;;1.25;1.02;;;;;;;10.48;100.00;98002.03;332066;29;18217;-76
2023/12/13 00:18:10;;;;;;;0.80;0.55;;;;;;;10.48;100.00;98002.03;333705;29;18205;-76
2023/12/13 00:18:23;;;;;;;0.63;0.40;;;;;;;10.52;100.00;98008.72;336860;28;6642;-76
2023/12/13 00:18:35;;;;;;;0.38;0.38;;;;;;;10.57;100.00;98001.50;333274;28;15130;-77
2023/12/13 00:18:47;;;;;;;0.40;0.40;;;;;;;10.48;100.00;98002.03;336824;28;4512;-77
2023/12/13 00:19:00;;;;;;;0.65;0.65;;;;;;;10.45;100.00;98003.03;334493;28;17898;-77
2023/12/13 00:19:12;;;;;;;0.73;0.65;;;;;;;10.39;100.00;98006.81;335597;28;7116;-76
2023/12/13 00:19:24;;;;;;;0.43;0.43;;;;;;;10.44;100.00;98000.53;334042;28;5304;-76
2023/12/13 00:19:36;;;;;;;1.52;0.40;;;;;;;10.49;100.00;98003.72;330461;29;4996;-77
2023/12/13 00:19:48;;;;;;;1.60;0.50;;;;;;;10.51;100.00;98001.84;333755;29;5536;-76
2023/12/13 00:20:01;;;;;;;2.65;0.82;;;;;;;10.49;100.00;98008.91;329635;29;18047;-76
2023/12/13 00:20:13;;;;;;;1.50;0.80;;;;;;;10.48;100.00;97999.41;335840;29;4613;-76
2023/12/13 00:20:25;;;;;;;0.65;0.60;;;;;;;10.46;100.00;97998.69;331849;29;17984;-76
2023/12/13 00:20:38;;;;;;;1.08;1.00;;;;;;;10.40;100.00;98012.84;333098;29;5494;-76
2023/12/13 00:20:51;;;;;;;1.63;1.50;;;;;;;10.38;100.00;98005.19;332510;29;18232;-77
2023/12/13 00:21:03;;;;;;;3.75;2.85;;;;;;;10.37;100.00;98005.25;328870;29;4783;-76
2023/12/13 00:21:17;;;;;;;3.38;2.50;;;;;;;10.40;100.00;97999.88;331895;29;11956;-76
2023/12/13 00:21:29;;;;;;;2.42;1.92;;;;;;;10.38;100.00;98001.72;335321;28;5252;-76
2023/12/13 00:21:41;;;;;;;3.35;2.50;;;;;;;10.42;100.00;98010.19;334509;28;17657;-76
2023/12/13 00:21:53;;;;;;;3.05;2.58;;;;;;;10.49;100.00;98001.13;337086;28;5746;-76
2023/12/13 00:22:05;;;;;;;2.35;1.83;;;;;;;10.53;100.00;98000.00;334014;28;17940;-76
2023/12/13 00:22:17;;;;;;;1.25;0.95;;;;;;;10.50;100.00;98002.75;337373;28;4704;-76
2023/12/13 00:22:29;;;;;;;1.23;0.68;;;;;;;10.48;100.00;98002.84;334791;28;13134;-76
2023/12/13 00:22:41;;;;;;;0.70;0.40;;;;;;;10.48;100.00;98002.03;336830;28;4777;-76
2023/12/13 00:22:53;;;;;;;0.68;0.40;;;;;;;10.49;100.00;98004.53;336565;28;6128;-76
2023/12/13 00:23:05;;;;;;;0.65;0.50;;;;;;;10.51;100.00;98007.06;333860;28;19059;-76
2023/12/13 00:23:17;;;;;;;0.63;0.47;;;;;;;10.49;100.00;98006.31;337237;28;5369;-76
2023/12/13 00:23:29;;;;;;;0.65;0.50;;;;;;;10.49;100.00;98003.72;334304;28;18205;-76
2023/12/13 00:23:42;;;;;;;1.33;0.57;;;;;;;10.47;100.00;98001.19;337042;28;4660;-76
2023/12/13 00:23:54;;;;;;;1.38;0.45;;;;;;;10.49;100.00;98003.72;332517;28;4862;-76
2023/12/13 00:24:07;;;;;;;1.05;0.30;;;;;;;10.55;100.00;98000.75;333539;29;18270;-76
2023/12/13 00:24:19;;;;;;;0.43;0.28;;;;;;;10.53;100.00;98000.00;335459;28;5306;-77
2023/12/13 00:24:31;;;;;;;1.20;0.40;;;;;;;10.48;100.00;98002.03;333513;28;19528;-76
2023/12/13 00:24:43;;;;;;;1.50;0.50;;;;;;;10.48;100.00;98002.84;335671;28;5155;-76
2023/12/13 00:24:55;;;;;;;1.40;0.40;;;;;;;10.50;100.00;98006.22;333361;28;11758;-76
2023/12/13 00:25:07;;;;;;;0.38;0.30;;;;;;;10.53;100.00;98002.59;336200;29;4677;-77
2023/12/13 00:25:20;;;;;;;0.93;0.40;;;;;;;10.47;100.00;98000.38;331777;28;5124;-76
2023/12/13 00:25:32;;;;;;;1.70;0.40;;;;;;;10.51;100.00;98001.84;332827;28;17905;-76
2023/12/13 00:25:45;;;;;;;1.25;0.20;;;;;;;10.47;100.00;97998.59;335030;29;4558;-76
2023/12/13 00:25:57;;;;;;;0.30;0.20;;;;;;;10.49;100.00;97993.31;332577;28;19505;-76
2023/12/13 00:26:14;;;;;;;0.30;0.20;;;;;;;10.52;100.00;98000.91;334222;29;4528;-77
2023/12/13 00:26:26;;;;;;;0.20;0.20;;;;;;;10.49;100.00;97993.31;333587;29;17644;-76
2023/12/13 00:26:39;;;;;;;0.40;0.40;;;;;;;10.50;100.00;97994.97;335724;29;4880;-76
2023/12/13 00:26:51;;;;;;;1.55;1.08;;;;;;;10.52;100.00;97998.31;332518;29;16699;-76
2023/12/13 00:27:04;;;;;;;1.90;1.33;;;;;;;10.47;100.00;98000.38;335070;28;4651;-76
2023/12/13 00:27:16;;;;;;;1.75;1.13;;;;;;;10.45;100.00;98003.03;335413;29;5535;-76
2023/12/13 00:27:28;;;;;;;0.60;0.60;;;;;;;10.45;100.00;98002.22;329221;29;17822;-76
2023/12/13 00:27:40;;;;;;;0.73;0.70;;;;;;;10.43;100.00;97997.09;335157;29;4627;-76
2023/12/13 00:27:52;;;;;;;0.73;0.73;;;;;;;10.38;100.00;98002.56;333198;28;17766;-77
2023/12/13 00:28:04;;;;;;;0.68;0.60;;;;;;;10.42;100.00;97999.78;336190;29;5411;-76
2023/12/13 00:28:16;;;;;;;0.38;0.38;;;;;;;10.42;100.00;97999.78;336243;28;5255;-77
2023/12/13 00:28:28;;;;;;;0.30;0.30;;;;;;;10.41;100.00;98005.91;329800;28;5278;-76
2023/12/13 00:28:41;;;;;;;1.00;0.43;;;;;;;10.43;100.00;98009.25;336770;28;4732;-76
2023/12/13 00:28:53;;;;;;;1.35;0.85;;;;;;;10.44;100.00;97998.75;334617;28;19039;-76
2023/12/13 00:29:08;;;;;;;1.20;1.10;;;;;;;10.46;100.00;97998.69;336915;28;4679;-76
2023/12/13 00:29:20;;;;;;;1.42;1.33;;;;;;;10.45;100.00;97997.03;332624;28;19128;-76
2023/12/13 00:29:32;;;;;;;0.82;0.80;;;;;;;10.41;100.00;98005.91;334587;28;16515;-76
2023/12/13 00:29:44;;;;;;;0.85;0.65;;;;;;;10.37;100.00;98000.88;332197;28;5781;-76
2023/12/13 00:29:56;;;;;;;1.30;1.00;;;;;;;10.37;100.00;98000.88;336362;28;5266;-76
2023/12/13 00:30:09;;;;;;;1.45;1.30;;;;;;;10.36;100.00;98001.81;330919;28;18176;-76
2023/12/13 00:30:21;;;;;;;1.15;1.05;;;;;;;10.38;100.00;98002.56;335633;29;5521;-76
2023/12/13 00:30:33;;;;;;;0.30;0.30;;;;;;;10.35;100.00;97997.53;333573;28;18338;-77
2023/12/13 00:30:45;;;;;;;0.50;0.30;;;;;;;10.33;100.00;97994.19;335268;28;5344;-76
2023/12/13 00:30:58;;;;;;;1.10;0.35;;;;;;;10.34;100.00;98003.69;333429;28;18103;-76
2023/12/13 00:31:10;;;;;;;0.93;0.30;;;;;;;10.32;100.00;98002.94;335424;28;4807;-76
2023/12/13 00:31:22;;;;;;;0.30;0.30;;;;;;;10.33;100.00;98004.59;331190;29;5140;-76
2023/12/13 00:31:35;;;;;;;0.40;0.32;;;;;;;10.34;100.00;98001.09;333254;28;18318;-76
2023/12/13 00:31:47;;;;;;;0.40;0.40;;;;;;;10.37;100.00;98000.88;335195;29;4634;-77
2023/12/13 00:31:59;;;;;;;1.52;0.40;;;;;;;10.37;100.00;98003.47;332746;28;18054;-76
2023/12/13 00:32:12;;;;;;;1.30;0.40;;;;;;;10.38;100.00;97997.38;335458;28;4718;-76
2023/12/13 00:32:24;;;;;;;1.42;0.50;;;;;;;10.34;100.00;98001.09;332973;28;19538;-76
2023/12/13 00:32:36;;;;;;;0.75;0.50;;;;;;;10.35;100.00;98002.75;335906;28;5812;-76
2023/12/13 00:32:48;;;;;;;0.63;0.40;;;;;;;10.38;100.00;98005.19;330036;28;4711;-76
2023/12/13 00:33:00;;;;;;;0.30;0.30;;;;;;;10.35;100.00;97996.72;336009;28;4592;-77
2023/12/13 00:33:12;;;;;;;0.30;0.30;;;;;;;10.32;100.00;98002.94;336171;28;5385;-77
2023/12/13 00:33:24;;;;;;;0.85;0.50;;;;;;;10.35;100.00;98001.91;332093;28;19189;-77
2023/12/13 00:33:37;;;;;;;0.75;0.40;;;;;;;10.34;100.00;98001.09;334981;29;5525;-77
2023/12/13 00:33:49;;;;;;;0.52;0.40;;;;;;;10.36;100.00;97999.22;332268;28;17975;-76
2023/12/13 00:34:01;;;;;;;0.60;0.30;;;;;;;10.33;100.00;97998.56;336083;28;5208;-76
2023/12/13 00:34:14;;;;;;;0.55;0.40;;;;;;;10.29;100.00;97997.88;334813;29;5343;-76
2023/12/13 00:34:26;;;;;;;0.98;0.82;;;;;;;10.34;100.00;97995.88;333005;28;18446;-77
2023/12/13 00:34:38;;;;;;;1.65;1.17;;;;;;;10.36;100.00;97999.22;335732;28;5252;-76
2023/12/13 00:34:50;;;;;;;1.10;0.73;;;;;;;10.32;100.00;98000.34;333468;28;4739;-77
2023/12/13 00:35:02;;;;;;;1.17;0.77;;;;;;;10.36;100.00;97999.22;336246;28;5344;-76
2023/12/13 00:35:14;;;;;;;0.90;0.70;;;;;;;10.36;100.00;97999.22;333384;28;16623;-76
2023/12/13 00:35:26;;;;;;;1.02;0.80;;;;;;;10.39;100.00;98001.63;332164;28;7515;-77
2023/12/13 00:35:38;;;;;;;1.38;1.13;;;;;;;10.41;100.00;97992.94;330582;29;4849;-77
2023/12/13 00:35:50;;;;;;;1.75;1.60;;;;;;;10.40;100.00;98005.06;331290;29;18056;-76
2023/12/13 00:36:03;;;;;;;1.38;1.17;;;;;;;10.42;100.00;98002.38;333539;29;4605;-77
2023/12/13 00:36:15;;;;;;;0.90;0.70;;;;;;;10.41;100.00;97998.13;330372;29;17860;-76
2023/12/13 00:36:27;;;;;;;0.90;0.40;;;;;;;10.47;100.00;98005.56;333906;29;5728;-76
2023/12/13 00:36:39;;;;;;;0.98;0.47;;;;;;;10.50;100.00;98000.16;329201;29;13035;-76
2023/12/13 00:36:51;;;;;;;1.60;1.13;;;;;;;10.48;100.00;98002.84;332252;29;9529;-76
2023/12/13 00:37:03;;;;;;;1.50;1.40;;;;;;;10.48;100.00;97992.47;332265;29;5675;-76
2023/12/13 00:37:15;;;;;;;1.52;1.38;;;;;;;10.48;100.00;97996.81;326577;29;18769;-77
2023/12/13 00:37:27;;;;;;;1.85;1.25;;;;;;;10.45;100.00;97991.81;333216;29;5079;-77
2023/12/13 00:37:39;;;;;;;1.85;0.75;;;;;;;10.45;100.00;97997.84;333460;29;5695;-76
2023/12/13 00:37:51;;;;;;;1.33;0.32;;;;;;;10.47;100.00;97998.59;329944;29;15016;-77
2023/12/13 00:38:04;;;;;;;0.57;0.20;;;;;;;10.49;100.00;98003.72;333667;29;4826;-76
2023/12/13 00:38:16;;;;;;;0.45;0.20;;;;;;;10.52;100.00;98003.50;331754;29;18018;-76
2023/12/13 00:38:28;;;;;;;0.28;0.28;;;;;;;10.55;100.00;97998.16;334759;29;5413;-76
2023/12/13 00:38:40;;;;;;;0.35;0.30;;;;;;;10.48;100.00;98002.03;331947;29;5158;-76
2023/12/13 00:38:52;;;;;;;0.65;0.50;;;;;;;10.45;100.00;98003.03;332544;29;5521;-76
2023/12/13 00:39:05;;;;;;;0.80;0.75;;;;;;;10.47;100.00;98001.19;333958;29;4569;-76
2023/12/13 00:39:18;;;;;;;1.23;1.13;;;;;;;10.51;100.00;98004.44;330955;29;18262;-76
2023/12/13 00:39:30;;;;;;;1.40;1.20;;;;;;;10.51;100.00;98001.84;334452;29;5194;-76
2023/12/13 00:39:42;;;;;;;1.20;0.90;;;;;;;10.50;100.00;98000.16;331613;29;17202;-76
2023/12/13 00:39:54;;;;;;;1.23;0.43;;;;;;;10.52;100.00;98004.38;329662;28;5267;-76
2023/12/13 00:40:06;;;;;;;0.90;0.30;;;;;;;10.54;100.00;98002.53;333237;28;12633;-76
2023/12/13 00:40:18;;;;;;;0.50;0.45;;;;;;;10.57;100.00;98001.50;335701;29;4719;-77
2023/12/13 00:40:31;;;;;;;1.42;0.85;;;;;;;10.57;100.00;98001.50;333290;29;19057;-77
2023/12/13 00:40:43;;;;;;;1.30;0.90;;;;;;;10.52;100.00;97998.31;335589;29;5424;-77
2023/12/13 00:40:55;;;;;;;0.98;0.75;;;;;;;10.52;100.00;98003.50;333671;28;11681;-77
2023/12/13 00:41:07;;;;;;;0.50;0.40;;;;;;;10.48;100.00;98002.84;334355;28;18316;-76
2023/12/13 00:41:21;;;;;;;0.88;0.85;;;;;;;10.49;100.00;98003.72;336586;28;4516;-77
2023/12/13 00:41:33;;;;;;;0.90;0.90;;;;;;;10.42;100.00;98002.38;328383;28;18289;-77
2023/12/13 00:41:45;;;;;;;0.90;0.90;;;;;;;10.44;100.00;98001.34;335368;28;4537;-77
2023/12/13 00:41:57;;;;;;;0.60;0.60;;;;;;;10.45;100.00;97999.63;333234;28;18711;-76
2023/12/13 00:42:09;;;;;;;0.47;0.47;;;;;;;10.48;100.00;98002.03;336639;28;5426;-77
2023/12/13 00:42:21;;;;;;;0.55;0.30;;;;;;;10.51;100.00;97999.25;334140;28;18226;-76
2023/12/13 00:42:33;;;;;;;0.70;0.40;;;;;;;10.49;100.00;98003.72;336955;28;4950;-76
2023/12/13 00:42:45;;;;;;;0.30;0.30;;;;;;;10.49;100.00;97999.34;336302;28;4586;-77
2023/12/13 00:42:57;;;;;;;0.30;0.30;;;;;;;10.52;100.00;97996.56;334179;28;16733;-76
2023/12/13 00:43:11;;;;;;;0.30;0.30;;;;;;;10.51;100.00;97999.25;331971;28;5257;-77
2023/12/13 00:43:23;;;;;;;0.25;0.25;;;;;;;10.50;100.00;97998.44;334434;28;18184;-76
2023/12/13 00:43:35;;;;;;;0.20;0.20;;;;;;;10.49;100.00;97998.50;337216;28;5205;-76
2023/12/13 00:43:47;;;;;;;0.43;0.43;;;;;;;10.46;100.00;97996.06;333550;28;4794;-76
2023/12/13 00:43:59;;;;;;;0.73;0.73;;;;;;;10.43;100.00;97994.50;337264;28;4559;-76
2023/12/13 00:44:11;;;;;;;0.68;0.68;;;;;;;10.47;100.00;97995.16;336675;28;4851;-77
2023/12/13 00:44:23;;;;;;;0.73;0.55;;;;;;;10.45;100.00;98003.03;329710;28;13492;-77
2023/12/13 00:44:35;;;;;;;0.55;0.43;;;;;;;10.48;100.00;97999.41;337237;28;4607;-77
2023/12/13 00:44:49;;;;;;;0.47;0.47;;;;;;;10.47;100.00;97995.16;330797;28;17872;-77
2023/12/13 00:45:01;;;;;;;0.80;0.53;;;;;;;10.50;100.00;98000.16;335766;28;4706;-76
2023/12/13 00:45:13;;;;;;;0.60;0.30;;;;;;;10.55;100.00;97992.97;333105;28;11041;-76
2023/12/13 00:45:25;;;;;;;0.50;0.30;;;;;;;10.55;100.00;97998.16;335757;28;4729;-77
2023/12/13 00:45:37;;;;;;;0.45;0.45;;;;;;;10.57;100.00;98001.50;332715;29;13915;-76
2023/12/13 00:45:49;;;;;;;0.65;0.50;;;;;;;10.54;100.00;97991.25;335607;29;5576;-77
2023/12/13 00:46:04;;;;;;;1.20;0.50;;;;;;;10.53;100.00;98000.00;330708;29;5641;-77
2023/12/13 00:46:19;;;;;;;0.93;0.40;;;;;;;10.50;100.00;98000.16;332229;29;17937;-76
2023/12/13 00:46:32;;;;;;;1.02;0.93;;;;;;;10.48;100.00;97996.81;331898;29;17733;-77
2023/12/13 00:46:44;;;;;;;1.63;1.52;;;;;;;10.50;100.00;97994.97;333513;29;16659;-77
2023/12/13 00:46:57;;;;;;;1.70;1.60;;;;;;;10.52;100.00;97996.56;335257;28;4616;-77
2023/12/13 00:47:09;;;;;;;1.35;1.25;;;;;;;10.54;100.00;97991.25;333640;29;17782;-77
2023/12/13 00:47:21;;;;;;;0.77;0.75;;;;;;;10.54;100.00;97996.47;335068;29;4814;-77
2023/12/13 00:47:33;;;;;;;0.80;0.43;;;;;;;10.56;100.00;97997.22;335635;29;5942;-77
2023/12/13 00:47:45;;;;;;;1.02;0.63;;;;;;;10.55;100.00;97995.56;333273;28;17941;-77
2023/12/13 00:47:58;;;;;;;0.85;0.70;;;;;;;10.51;100.00;97997.50;336794;28;5547;-77
2023/12/13 00:48:10;;;;;;;2.17;1.05;;;;;;;10.53;100.00;97997.41;332871;28;17804;-76
2023/12/13 00:48:22;;;;;;;3.30;2.10;;;;;;;10.52;100.00;97998.31;336313;28;4616;-76
2023/12/13 00:48:34;;;;;;;4.25;3.50;;;;;;;10.54;100.00;97996.47;332565;28;13575;-76
2023/12/13 00:48:47;;;;;;;4.00;3.38;;;;;;;10.57;100.00;98002.31;336159;28;4612;-77
2023/12/13 00:49:00;;;;;;;3.25;2.60;;;;;;;10.59;100.00;98000.47;329718;28;17908;-77
2023/12/13 00:49:12;;;;;;;3.67;2.60;;;;;;;10.54;100.00;97996.47;335639;28;4696;-77
2023/12/13 00:49:24;;;;;;;3.92;2.03;;;;;;;10.51;100.00;97999.25;332177;29;6308;-76
2023/12/13 00:49:36;;;;;;;3.03;1.70;;;;;;;10.53;100.00;98000.81;333614;29;4533;-77
2023/12/13 00:49:48;;;;;;;2.08;1.52;;;;;;;10.52;100.00;98000.91;333777;29;5221;-77
2023/12/13 00:50:00;;;;;;;2.08;1.58;;;;;;;10.56;100.00;97999.81;331708;29;18048;-77
2023/12/13 00:50:12;;;;;;;1.55;1.30;;;;;;;10.58;100.00;97997.94;333394;29;4614;-77
2023/12/13 00:50:24;;;;;;;1.20;1.10;;;;;;;10.59;100.00;98000.47;332035;29;5340;-77
2023/12/13 00:50:36;;;;;;;1.20;1.00;;;;;;;10.62;100.00;97996.84;330465;29;19236;-76
2023/12/13 00:50:48;;;;;;;1.60;1.02;;;;;;;10.65;100.00;97998.44;331825;29;5128;-76
2023/12/13 00:51:00;;;;;;;1.95;1.20;;;;;;;10.61;100.00;97997.78;330257;29;15828;-76
2023/12/13 00:51:19;;;;;;;2.00;1.40;;;;;;;10.62;100.00;97998.63;333304;29;4589;-77
2023/12/13 00:51:31;;;;;;;3.72;1.30;;;;;;;10.61;100.00;97992.59;331674;29;17641;-77
2023/12/13 00:51:43;;;;;;;3.80;1.30;;;;;;;10.63;100.00;97995.94;334965;28;4536;-77
2023/12/13 00:51:55;;;;;;;1.70;1.27;;;;;;;10.61;100.00;97995.19;328877;29;17953;-76
2023/12/13 00:52:07;;;;;;;1.48;1.05;;;;;;;10.62;100.00;97999.44;334908;29;4600;-76
2023/12/13 00:52:19;;;;;;;1.35;0.95;;;;;;;10.64;100.00;97996.75;335263;29;4760;-77
2023/12/13 00:52:32;;;;;;;1.83;1.40;;;;;;;10.66;100.00;98000.09;327772;29;17657;-77
2023/12/13 00:52:44;;;;;;;2.30;1.58;;;;;;;10.67;100.00;97997.41;334324;29;4758;-77
2023/12/13 00:52:56;;;;;;;1.70;1.17;;;;;;;10.67;100.00;97997.41;332880;29;4824;-77
2023/12/13 00:53:08;;;;;;;1.25;1.00;;;;;;;10.66;100.00;97995.72;333478;29;4561;-77
2023/12/13 00:53:20;;;;;;;1.30;1.20;;;;;;;10.68;100.00;98000.84;332005;29;6273;-76
2023/12/13 00:53:32;;;;;;;1.10;1.00;;;;;;;10.66;100.00;97995.72;334736;29;4678;-77
2023/12/13 00:53:45;;;;;;;0.70;0.70;;;;;;;10.67;100.00;97997.41;335364;29;4701;-77
2023/12/13 00:53:57;;;;;;;1.25;1.15;;;;;;;10.65;100.00;97996.69;333955;28;17841;-77
2023/12/13 00:54:09;;;;;;;1.77;1.67;;;;;;;10.65;100.00;97998.44;336712;28;5423;-77
2023/12/13 00:54:21;;;;;;;2.05;1.90;;;;;;;10.67;100.00;98000.03;333372;28;13115;-77
2023/12/13 00:54:33;;;;;;;2.20;1.90;;;;;;;10.65;100.00;97998.44;336522;28;4617;-76
2023/12/13 00:54:45;;;;;;;2.95;2.33;;;;;;;10.61;100.00;98000.38;334880;28;4616;-77
2023/12/13 00:55:00;;;;;;;4.47;3.10;;;;;;;10.61;100.00;97996.97;333463;28;5729;-76
2023/12/13 00:55:12;;;;;;;7.13;4.28;;;;;;;10.63;100.00;97997.69;332010;28;18239;-77
2023/12/13 00:55:24;;;;;;;6.20;4.10;;;;;;;10.61;100.00;97992.59;336234;28;4540;-77
2023/12/13 00:55:36;;;;;;;4.07;3.67;;;;;;;10.63;100.00;97990.72;331739;29;16555;-77
2023/12/13 00:55:51;;;;;;;3.40;3.10;;;;;;;10.63;100.00;97990.72;334153;29;4874;-77
2023/12/13 00:56:04;;;;;;;2.90;2.70;;;;;;;10.62;100.00;97998.63;332281;29;17598;-76
2023/12/13 00:56:16;;;;;;;2.60;2.40;;;;;;;10.64;100.00;97997.59;335961;29;4600;-77
2023/12/13 00:56:30;;;;;;;2.45;2.25;;;;;;;10.65;100.00;97995.84;327502;29;18067;-77
2023/12/13 00:56:42;;;;;;;2.22;2.03;;;;;;;10.66;100.00;98000.94;332723;29;17792;-77
2023/12/13 00:56:54;;;;;;;2.10;1.80;;;;;;;10.65;100.00;97995.84;335234;29;5313;-77
2023/12/13 00:57:07;;;;;;;1.55;1.30;;;;;;;10.66;100.00;97995.72;335836;29;5036;-76
2023/12/13 00:57:19;;;;;;;1.17;1.00;;;;;;;10.66;100.00;97998.34;333057;28;17709;-76
2023/12/13 00:57:31;;;;;;;1.20;1.02;;;;;;;10.69;100.00;97999.94;335398;28;4955;-76
2023/12/13 00:57:43;;;;;;;1.00;0.73;;;;;;;10.71;100.00;98000.69;331912;28;17965;-77
2023/12/13 00:57:56;;;;;;;1.02;0.80;;;;;;;10.71;100.00;98003.28;335796;28;4774;-76
2023/12/13 00:58:08;;;;;;;0.95;0.80;;;;;;;10.72;100.00;98000.56;331992;28;4662;-77
2023/12/13 00:58:20;;;;;;;1.15;1.05;;;;;;;10.72;100.00;98000.56;335660;28;4546;-76